Flight Track Log - Related Links

Times and Time Zones

All times are in EDT time to prevent confusion due to time zone crossing. See the AUB1736 flight status page for this flight to view local times or setup timezone preferences in your user account.

Time Position Orientation Groundspeed Altitude Reporting Facility
EDT Latitude Longitude Course Direction KTS MPH feet Rate Location/Type
Sat 03:58:00 AM 47.8056 12.5148 138° Southeast  Level Estimated
Sat 03:59:00 AM 47.7138 12.6348 139° Southeast  Level Estimated
Sat 04:00:00 AM 47.6219 12.7543 139° Southeast  Level Estimated
Sat 04:01:00 AM 47.5298 12.8735 139° Southeast  Level Estimated
Sat 04:02:00 AM 47.4376 12.9922 139° Southeast  Level Estimated
Sat 04:03:00 AM 47.3453 13.1105 139° Southeast  Level Estimated
Sat 04:04:00 AM 47.2529 13.2283 139° Southeast  Level Estimated
Sat 04:05:00 AM 47.1604 13.3458 139° Southeast  Level Estimated
Sat 04:06:00 AM 47.0677 13.4628 139° Southeast  Level Estimated
Sat 04:07:00 AM 46.9749 13.5795 139° Southeast  Level Estimated
Sat 04:08:00 AM 46.8820 13.6957 139° Southeast  Level Estimated
Sat 04:09:00 AM 46.7890 13.8116 140° Southeast  Level Estimated
Sat 04:10:00 AM 46.6959 13.9270 140° Southeast  Level Estimated
Sat 04:11:00 AM 46.6026 14.0421 140° Southeast  Level Estimated
Sat 04:12:00 AM 46.5093 14.1567 140° Southeast  Level Estimated
Sat 04:13:00 AM 46.4158 14.2710 140° Southeast  Level Estimated
Sat 04:14:00 AM 46.3222 14.3848 140° Southeast  Level Estimated
Sat 04:15:00 AM 46.2285 14.4983 140° Southeast  Level Estimated
Sat 04:16:00 AM 46.1347 14.6114 140° Southeast  Level Estimated
Sat 04:17:00 AM 46.0407 14.7241 140° Southeast  Level Estimated
Sat 04:18:00 AM 45.9467 14.8364 140° Southeast  Level Estimated
Sat 04:19:00 AM 45.8526 14.9483 140° Southeast  Level Estimated
Sat 04:20:00 AM 45.7583 15.0599 140° Southeast  Level Estimated
Sat 04:21:00 AM 45.6639 15.1711 141° Southeast  Level Estimated
Sat 04:22:00 AM 45.5695 15.2819 141° Southeast  Level Estimated
Sat 04:23:00 AM 45.4749 15.3923 141° Southeast  Level Estimated
Sat 04:24:00 AM 45.3802 15.5024 141° Southeast  Level Estimated
Sat 04:25:00 AM 45.2854 15.6121 141° Southeast  Level Estimated
Sat 04:26:00 AM 45.1905 15.7214 141° Southeast  Level Estimated
Sat 04:27:00 AM 45.0955 15.8304 141° Southeast  Level Estimated
Sat 04:28:00 AM 45.0004 15.9390 141° Southeast  Level Estimated
Sat 04:29:00 AM 44.9052 16.0473 141° Southeast  Level Estimated
Sat 04:30:00 AM 44.8099 16.1551 141° Southeast  Level Estimated
Sat 04:31:00 AM 44.7145 16.2627 141° Southeast  Level Estimated
Sat 04:32:00 AM 44.6190 16.3699 141° Southeast  Level Estimated
Sat 04:33:00 AM 44.5234 16.4767 141° Southeast  Level Estimated
Sat 04:34:00 AM 44.4277 16.5831 142° Southeast  Level Estimated
Sat 04:35:00 AM 44.3319 16.6893 142° Southeast  Level Estimated
Sat 04:36:00 AM 44.2360 16.7950 142° Southeast  Level Estimated
Sat 04:37:00 AM 44.1400 16.9005 142° Southeast  Level Estimated
Sat 04:38:00 AM 44.0439 17.0056 142° Southeast  Level Estimated
Sat 04:39:00 AM 43.9477 17.1103 142° Southeast  Level Estimated
Sat 04:40:00 AM 43.8514 17.2147 142° Southeast  Level Estimated
Sat 04:41:00 AM 43.7550 17.3188 142° Southeast  Level Estimated
Sat 04:42:00 AM 43.6585 17.4226 142° Southeast  Level Estimated
Sat 04:43:00 AM 43.5620 17.5260 142° Southeast  Level Estimated
Sat 04:44:00 AM 43.4653 17.6290 142° Southeast  Level Estimated
Sat 04:45:00 AM 43.3685 17.7318 142° Southeast  Level Estimated
Sat 04:46:00 AM 43.2614 17.8451 142° Southeast  Level Estimated
Sat 04:47:00 AM 43.1542 17.9579 142° Southeast  Level Estimated
Sat 04:48:00 AM 43.0468 18.0704 143° Southeast  Level Estimated
Sat 04:49:00 AM 42.9394 18.1825 143° Southeast  Level Estimated
Sat 04:50:00 AM 42.8318 18.2942 143° Southeast  Level Estimated
Sat 04:51:00 AM 42.7241 18.4055 143° Southeast  Level Estimated
Sat 04:52:00 AM 42.6163 18.5164 143° Southeast  Level Estimated
Sat 04:53:00 AM 42.5084 18.6269 143° Southeast  Level Estimated
Sat 04:54:00 AM 42.4005 18.7371 143° Southeast  Level Estimated
Sat 04:55:00 AM 42.2924 18.8468 143° Southeast  Level Estimated
Sat 04:56:00 AM 42.1842 18.9562 143° Southeast  Level Estimated
Sat 04:57:00 AM 42.0758 19.0652 143° Southeast  Level Estimated
Sat 04:58:00 AM 41.9674 19.1739 143° Southeast  Level Estimated
Sat 04:59:00 AM 41.8589 19.2822 143° Southeast  Level Estimated
Sat 05:00:00 AM 41.7503 19.3901 143° Southeast  Level Estimated
Sat 05:01:00 AM 41.6416 19.4976 144° Southeast  Level Estimated
Sat 05:02:00 AM 41.5328 19.6048 144° Southeast  Level Estimated
Sat 05:03:00 AM 41.4239 19.7116 144° Southeast  Level Estimated
Sat 05:04:00 AM 41.4147 19.7206 144° Southeast  Level Estimated
Sat 05:05:00 AM 41.4147 19.7206 21° North  Level Estimated
Sat 05:06:00 AM 41.4147 19.7206 21° North  Level Estimated
Sat 05:07:00 AM 41.4147 19.7206 21° North  Level Estimated
Sat 05:08:00 AM 41.4147 19.7206 21° North  Level Estimated
Sat 05:09:00 AM 41.4147 19.7206 21° North  Level Estimated
Sat 05:10:00 AM 41.4147 19.7206 21° North  Level Estimated
Sat 05:11:00 AM 41.4147 19.7206 21° North  Level Estimated
Sat 05:12:00 AM 41.4147 19.7206 21° North  Level Estimated
Sat 05:13:00 AM 41.4147 19.7206 21° North  Level Estimated
Sat 05:14:00 AM 41.4147 19.7206 21° North  Level Estimated
Sat 05:15:00 AM 41.4147 19.7206 21° North  Level Estimated
Sat 05:16:00 AM 41.4147 19.7206 21° North  Level Estimated
Sat 05:17:00 AM 41.4147 19.7206 21° North  Level Estimated
Sat 05:18:00 AM 41.4147 19.7206 21° North  Level Estimated
Sat 05:19:00 AM 41.4147 19.7206 21° North  Level Estimated
Sat 05:20:00 AM 41.4147 19.7206 21° North  Level Estimated
Sat 05:21:00 AM 41.4147 19.7206 21° North  Level Estimated
Sat 05:22:00 AM 41.4147 19.7206 21° North  Level Estimated

Login

Don't have an account? Register now (free) for customized features, flight alerts, and more!